sensor_id;sensor_type;location;lat;lon;timestamp;temperature;humidity
14095;DHT22;18096;48.142;16.290;2023-07-13T00:02:23;21.40;99.90
14095;DHT22;18096;48.142;16.290;2023-07-13T00:04:48;21.40;99.90
14095;DHT22;18096;48.142;16.290;2023-07-13T00:07:14;21.50;99.90
14095;DHT22;18096;48.142;16.290;2023-07-13T00:09:40;21.40;99.90
14095;DHT22;18096;48.142;16.290;2023-07-13T00:12:28;21.40;99.90
14095;DHT22;18096;48.142;16.290;2023-07-13T00:14:57;21.40;99.90
14095;DHT22;18096;48.142;16.290;2023-07-13T00:17:23;21.50;99.90
14095;DHT22;18096;48.142;16.290;2023-07-13T00:19:49;21.50;99.90
14095;DHT22;18096;48.142;16.290;2023-07-13T00:22:15;21.50;99.90
14095;DHT22;18096;48.142;16.290;2023-07-13T00:24:41;21.40;99.90
14095;DHT22;18096;48.142;16.290;2023-07-13T00:27:09;21.40;99.90
14095;DHT22;18096;48.142;16.290;2023-07-13T00:29:36;21.30;99.90
14095;DHT22;18096;48.142;16.290;2023-07-13T00:32:03;21.40;99.90
14095;DHT22;18096;48.142;16.290;2023-07-13T00:34:29;21.30;99.90
14095;DHT22;18096;48.142;16.290;2023-07-13T00:36:56;21.30;99.90
14095;DHT22;18096;48.142;16.290;2023-07-13T00:39:21;21.30;99.90
14095;DHT22;18096;48.142;16.290;2023-07-13T00:41:48;21.30;99.90
14095;DHT22;18096;48.142;16.290;2023-07-13T00:44:14;21.20;99.90
14095;DHT22;18096;48.142;16.290;2023-07-13T00:46:41;21.20;99.90
14095;DHT22;18096;48.142;16.290;2023-07-13T00:49:10;21.10;99.90
14095;DHT22;18096;48.142;16.290;2023-07-13T00:51:43;21.10;99.90
14095;DHT22;18096;48.142;16.290;2023-07-13T00:54:13;21.10;99.90
14095;DHT22;18096;48.142;16.290;2023-07-13T00:56:41;21.10;99.90
14095;DHT22;18096;48.142;16.290;2023-07-13T00:59:10;21.10;99.90
14095;DHT22;18096;48.142;16.290;2023-07-13T01:01:37;21.10;99.90
14095;DHT22;18096;48.142;16.290;2023-07-13T01:04:03;21.20;99.90
14095;DHT22;18096;48.142;16.290;2023-07-13T01:06:34;21.20;99.90
14095;DHT22;18096;48.142;16.290;2023-07-13T01:09:01;21.20;99.90
14095;DHT22;18096;48.142;16.290;2023-07-13T01:11:26;21.20;99.90
14095;DHT22;18096;48.142;16.290;2023-07-13T01:13:52;21.20;99.90
14095;DHT22;18096;48.142;16.290;2023-07-13T01:16:26;21.20;99.90
14095;DHT22;18096;48.142;16.290;2023-07-13T01:18:52;21.30;99.90
14095;DHT22;18096;48.142;16.290;2023-07-13T01:21:18;21.30;99.90
14095;DHT22;18096;48.142;16.290;2023-07-13T01:23:44;21.30;99.90
14095;DHT22;18096;48.142;16.290;2023-07-13T01:26:10;21.40;99.90
14095;DHT22;18096;48.142;16.290;2023-07-13T01:28:37;21.40;99.90
14095;DHT22;18096;48.142;16.290;2023-07-13T01:31:04;21.40;99.90
14095;DHT22;18096;48.142;16.290;2023-07-13T01:33:30;21.50;99.90
14095;DHT22;18096;48.142;16.290;2023-07-13T01:35:56;21.50;99.90
14095;DHT22;18096;48.142;16.290;2023-07-13T01:38:24;21.60;99.90
14095;DHT22;18096;48.142;16.290;2023-07-13T01:40:51;21.70;99.90
14095;DHT22;18096;48.142;16.290;2023-07-13T01:43:17;21.70;99.90
14095;DHT22;18096;48.142;16.290;2023-07-13T01:45:43;21.70;99.90
14095;DHT22;18096;48.142;16.290;2023-07-13T01:48:09;21.70;99.90
14095;DHT22;18096;48.142;16.290;2023-07-13T01:50:35;21.70;99.90
14095;DHT22;18096;48.142;16.290;2023-07-13T01:53:02;21.70;99.90
14095;DHT22;18096;48.142;16.290;2023-07-13T01:55:28;21.70;99.90
14095;DHT22;18096;48.142;16.290;2023-07-13T01:57:53;21.70;99.90
14095;DHT22;18096;48.142;16.290;2023-07-13T02:00:19;21.70;99.90
14095;DHT22;18096;48.142;16.290;2023-07-13T02:02:45;21.70;99.90
14095;DHT22;18096;48.142;16.290;2023-07-13T02:05:12;21.80;99.90
14095;DHT22;18096;48.142;16.290;2023-07-13T02:07:39;21.90;99.90
14095;DHT22;18096;48.142;16.290;2023-07-13T02:10:06;21.90;99.90
14095;DHT22;18096;48.142;16.290;2023-07-13T02:12:33;22.00;99.90
14095;DHT22;18096;48.142;16.290;2023-07-13T02:14:59;22.10;99.90
14095;DHT22;18096;48.142;16.290;2023-07-13T02:17:26;22.10;99.90
14095;DHT22;18096;48.142;16.290;2023-07-13T02:19:52;22.10;99.90
14095;DHT22;18096;48.142;16.290;2023-07-13T02:22:18;22.20;99.90
14095;DHT22;18096;48.142;16.290;2023-07-13T02:24:44;22.20;99.90
14095;DHT22;18096;48.142;16.290;2023-07-13T02:27:09;22.20;99.90
14095;DHT22;18096;48.142;16.290;2023-07-13T02:29:35;22.30;99.90
14095;DHT22;18096;48.142;16.290;2023-07-13T02:32:01;22.30;99.90
14095;DHT22;18096;48.142;16.290;2023-07-13T02:34:26;22.40;99.90
14095;DHT22;18096;48.142;16.290;2023-07-13T02:36:52;22.40;99.90
14095;DHT22;18096;48.142;16.290;2023-07-13T02:39:18;22.50;99.90
14095;DHT22;18096;48.142;16.290;2023-07-13T02:41:43;22.50;99.90
14095;DHT22;18096;48.142;16.290;2023-07-13T02:44:09;22.50;99.90
14095;DHT22;18096;48.142;16.290;2023-07-13T02:46:36;22.50;99.90
14095;DHT22;18096;48.142;16.290;2023-07-13T02:49:02;22.60;99.90
14095;DHT22;18096;48.142;16.290;2023-07-13T02:51:29;22.60;99.90
14095;DHT22;18096;48.142;16.290;2023-07-13T02:53:54;22.70;99.90
14095;DHT22;18096;48.142;16.290;2023-07-13T02:56:25;22.70;99.90
14095;DHT22;18096;48.142;16.290;2023-07-13T02:58:51;22.70;99.90
14095;DHT22;18096;48.142;16.290;2023-07-13T03:01:17;22.60;99.90
14095;DHT22;18096;48.142;16.290;2023-07-13T03:03:45;22.60;99.90
14095;DHT22;18096;48.142;16.290;2023-07-13T03:06:12;22.60;99.90
14095;DHT22;18096;48.142;16.290;2023-07-13T03:08:38;22.50;99.90
14095;DHT22;18096;48.142;16.290;2023-07-13T03:11:10;22.50;99.90
14095;DHT22;18096;48.142;16.290;2023-07-13T03:13:37;22.40;99.90
14095;DHT22;18096;48.142;16.290;2023-07-13T03:16:03;22.40;99.90
14095;DHT22;18096;48.142;16.290;2023-07-13T03:18:29;22.30;99.90
14095;DHT22;18096;48.142;16.290;2023-07-13T03:20:55;22.20;99.90
14095;DHT22;18096;48.142;16.290;2023-07-13T03:23:22;22.10;99.90
14095;DHT22;18096;48.142;16.290;2023-07-13T03:25:48;22.00;99.90
14095;DHT22;18096;48.142;16.290;2023-07-13T03:28:14;22.00;99.90
14095;DHT22;18096;48.142;16.290;2023-07-13T03:30:40;21.90;99.90
14095;DHT22;18096;48.142;16.290;2023-07-13T03:33:06;21.80;99.90
14095;DHT22;18096;48.142;16.290;2023-07-13T03:35:32;21.70;99.90
14095;DHT22;18096;48.142;16.290;2023-07-13T03:37:58;21.70;99.90
14095;DHT22;18096;48.142;16.290;2023-07-13T03:40:25;21.70;99.90
14095;DHT22;18096;48.142;16.290;2023-07-13T03:42:51;21.60;99.90
14095;DHT22;18096;48.142;16.290;2023-07-13T03:45:17;21.70;99.90
14095;DHT22;18096;48.142;16.290;2023-07-13T03:47:43;21.60;99.90
14095;DHT22;18096;48.142;16.290;2023-07-13T03:50:09;21.70;99.90
14095;DHT22;18096;48.142;16.290;2023-07-13T03:52:34;21.60;99.90
14095;DHT22;18096;48.142;16.290;2023-07-13T03:55:00;21.60;99.90
14095;DHT22;18096;48.142;16.290;2023-07-13T03:57:25;21.50;99.90
14095;DHT22;18096;48.142;16.290;2023-07-13T03:59:51;21.50;99.90
14095;DHT22;18096;48.142;16.290;2023-07-13T04:02:16;21.50;99.90
14095;DHT22;18096;48.142;16.290;2023-07-13T04:04:43;21.40;99.90
14095;DHT22;18096;48.142;16.290;2023-07-13T04:07:08;21.40;99.90
14095;DHT22;18096;48.142;16.290;2023-07-13T04:09:34;21.30;99.90
14095;DHT22;18096;48.142;16.290;2023-07-13T04:11:59;21.20;99.90
14095;DHT22;18096;48.142;16.290;2023-07-13T04:14:25;21.20;99.90
14095;DHT22;18096;48.142;16.290;2023-07-13T04:16:50;21.20;99.90
14095;DHT22;18096;48.142;16.290;2023-07-13T04:19:16;21.10;99.90
14095;DHT22;18096;48.142;16.290;2023-07-13T04:21:42;21.00;99.90
14095;DHT22;18096;48.142;16.290;2023-07-13T04:24:07;21.00;99.90
14095;DHT22;18096;48.142;16.290;2023-07-13T04:26:33;21.00;99.90
14095;DHT22;18096;48.142;16.290;2023-07-13T04:29:01;20.90;99.90
14095;DHT22;18096;48.142;16.290;2023-07-13T04:31:28;20.90;99.90
14095;DHT22;18096;48.142;16.290;2023-07-13T04:33:53;21.00;99.90
14095;DHT22;18096;48.142;16.290;2023-07-13T04:36:19;20.90;99.90
14095;DHT22;18096;48.142;16.290;2023-07-13T04:38:45;20.90;99.90
14095;DHT22;18096;48.142;16.290;2023-07-13T04:41:10;20.80;99.90
14095;DHT22;18096;48.142;16.290;2023-07-13T04:43:36;20.80;99.90
14095;DHT22;18096;48.142;16.290;2023-07-13T04:46:05;20.90;99.90
14095;DHT22;18096;48.142;16.290;2023-07-13T04:48:31;20.80;99.90
14095;DHT22;18096;48.142;16.290;2023-07-13T04:50:58;20.80;99.90
14095;DHT22;18096;48.142;16.290;2023-07-13T04:53:24;20.70;99.90
14095;DHT22;18096;48.142;16.290;2023-07-13T04:55:50;20.70;99.90
14095;DHT22;18096;48.142;16.290;2023-07-13T04:58:16;20.70;99.90
14095;DHT22;18096;48.142;16.290;2023-07-13T05:00:42;20.70;99.90
14095;DHT22;18096;48.142;16.290;2023-07-13T05:03:08;20.70;99.90
14095;DHT22;18096;48.142;16.290;2023-07-13T05:05:34;20.70;99.90
14095;DHT22;18096;48.142;16.290;2023-07-13T05:08:01;20.70;99.90
14095;DHT22;18096;48.142;16.290;2023-07-13T05:10:26;20.70;99.90
14095;DHT22;18096;48.142;16.290;2023-07-13T05:12:52;20.70;99.90
14095;DHT22;18096;48.142;16.290;2023-07-13T05:15:20;20.80;99.90
14095;DHT22;18096;48.142;16.290;2023-07-13T05:17:47;20.80;99.90
14095;DHT22;18096;48.142;16.290;2023-07-13T05:20:13;20.90;99.90
14095;DHT22;18096;48.142;16.290;2023-07-13T05:22:38;20.90;99.90
14095;DHT22;18096;48.142;16.290;2023-07-13T05:25:05;20.90;99.90
14095;DHT22;18096;48.142;16.290;2023-07-13T05:27:32;20.90;99.90
14095;DHT22;18096;48.142;16.290;2023-07-13T05:29:58;21.00;99.90
14095;DHT22;18096;48.142;16.290;2023-07-13T05:32:24;21.10;99.90
14095;DHT22;18096;48.142;16.290;2023-07-13T05:34:49;21.20;99.90
14095;DHT22;18096;48.142;16.290;2023-07-13T05:37:15;21.30;99.90
14095;DHT22;18096;48.142;16.290;2023-07-13T05:39:40;21.30;99.90
14095;DHT22;18096;48.142;16.290;2023-07-13T05:42:06;21.30;99.90
14095;DHT22;18096;48.142;16.290;2023-07-13T05:44:32;21.30;99.90
14095;DHT22;18096;48.142;16.290;2023-07-13T05:46:57;21.30;99.90
14095;DHT22;18096;48.142;16.290;2023-07-13T05:49:23;21.20;99.90
14095;DHT22;18096;48.142;16.290;2023-07-13T05:51:49;21.20;99.90
14095;DHT22;18096;48.142;16.290;2023-07-13T05:54:15;21.10;99.90
14095;DHT22;18096;48.142;16.290;2023-07-13T05:56:40;21.20;99.90
14095;DHT22;18096;48.142;16.290;2023-07-13T05:59:06;21.10;99.90
14095;DHT22;18096;48.142;16.290;2023-07-13T06:01:32;21.10;99.90
14095;DHT22;18096;48.142;16.290;2023-07-13T06:03:58;21.10;99.90
14095;DHT22;18096;48.142;16.290;2023-07-13T06:06:23;21.10;99.90
14095;DHT22;18096;48.142;16.290;2023-07-13T06:08:49;21.00;99.90
14095;DHT22;18096;48.142;16.290;2023-07-13T06:11:21;21.00;99.90
14095;DHT22;18096;48.142;16.290;2023-07-13T06:13:47;21.00;99.90
14095;DHT22;18096;48.142;16.290;2023-07-13T06:16:13;21.00;99.90
14095;DHT22;18096;48.142;16.290;2023-07-13T06:18:39;20.90;99.90
14095;DHT22;18096;48.142;16.290;2023-07-13T06:21:10;20.90;99.90
14095;DHT22;18096;48.142;16.290;2023-07-13T06:23:36;20.90;99.90
14095;DHT22;18096;48.142;16.290;2023-07-13T06:26:03;20.90;99.90
14095;DHT22;18096;48.142;16.290;2023-07-13T06:28:29;20.90;99.90
14095;DHT22;18096;48.142;16.290;2023-07-13T06:30:57;20.90;99.90
14095;DHT22;18096;48.142;16.290;2023-07-13T06:33:23;21.00;99.90
14095;DHT22;18096;48.142;16.290;2023-07-13T06:35:49;21.00;99.90
14095;DHT22;18096;48.142;16.290;2023-07-13T06:38:14;21.00;99.90
14095;DHT22;18096;48.142;16.290;2023-07-13T06:40:41;21.00;99.90
14095;DHT22;18096;48.142;16.290;2023-07-13T06:43:07;21.00;99.90
14095;DHT22;18096;48.142;16.290;2023-07-13T06:45:45;21.00;99.90
14095;DHT22;18096;48.142;16.290;2023-07-13T06:48:13;21.00;99.90
14095;DHT22;18096;48.142;16.290;2023-07-13T06:50:39;21.00;99.90
14095;DHT22;18096;48.142;16.290;2023-07-13T06:53:04;21.00;99.90
14095;DHT22;18096;48.142;16.290;2023-07-13T06:55:30;21.00;99.90
14095;DHT22;18096;48.142;16.290;2023-07-13T06:57:56;21.10;99.90
14095;DHT22;18096;48.142;16.290;2023-07-13T07:00:22;21.10;99.90
14095;DHT22;18096;48.142;16.290;2023-07-13T07:02:48;21.10;99.90
14095;DHT22;18096;48.142;16.290;2023-07-13T07:05:14;21.20;99.90
14095;DHT22;18096;48.142;16.290;2023-07-13T07:07:39;21.20;99.90
14095;DHT22;18096;48.142;16.290;2023-07-13T07:10:05;21.30;99.90
14095;DHT22;18096;48.142;16.290;2023-07-13T07:12:31;21.40;99.90
14095;DHT22;18096;48.142;16.290;2023-07-13T07:14:58;21.50;99.90
14095;DHT22;18096;48.142;16.290;2023-07-13T07:17:23;21.50;99.90
14095;DHT22;18096;48.142;16.290;2023-07-13T07:19:50;21.60;99.90
14095;DHT22;18096;48.142;16.290;2023-07-13T07:22:16;21.60;99.90
14095;DHT22;18096;48.142;16.290;2023-07-13T07:24:41;21.60;99.90
14095;DHT22;18096;48.142;16.290;2023-07-13T07:27:07;21.60;99.90
14095;DHT22;18096;48.142;16.290;2023-07-13T07:29:33;21.60;99.90
14095;DHT22;18096;48.142;16.290;2023-07-13T07:31:59;21.60;99.90
14095;DHT22;18096;48.142;16.290;2023-07-13T07:34:25;21.60;99.90
14095;DHT22;18096;48.142;16.290;2023-07-13T07:36:51;21.60;99.90
14095;DHT22;18096;48.142;16.290;2023-07-13T07:39:17;21.70;99.90
14095;DHT22;18096;48.142;16.290;2023-07-13T07:41:42;21.70;99.90
14095;DHT22;18096;48.142;16.290;2023-07-13T07:44:08;21.70;99.90
14095;DHT22;18096;48.142;16.290;2023-07-13T07:46:35;21.70;99.90
14095;DHT22;18096;48.142;16.290;2023-07-13T07:49:01;21.80;99.90
14095;DHT22;18096;48.142;16.290;2023-07-13T07:51:27;21.80;99.90
14095;DHT22;18096;48.142;16.290;2023-07-13T07:53:52;21.80;99.90
14095;DHT22;18096;48.142;16.290;2023-07-13T07:56:18;21.90;99.90
14095;DHT22;18096;48.142;16.290;2023-07-13T07:58:44;22.00;99.90
14095;DHT22;18096;48.142;16.290;2023-07-13T08:01:09;22.00;99.90
14095;DHT22;18096;48.142;16.290;2023-07-13T08:03:35;22.10;99.90
14095;DHT22;18096;48.142;16.290;2023-07-13T08:06:01;22.20;99.90
14095;DHT22;18096;48.142;16.290;2023-07-13T08:08:27;22.20;99.90
14095;DHT22;18096;48.142;16.290;2023-07-13T08:10:53;22.30;99.90
14095;DHT22;18096;48.142;16.290;2023-07-13T08:13:18;22.40;99.90
14095;DHT22;18096;48.142;16.290;2023-07-13T08:15:45;22.50;99.90
14095;DHT22;18096;48.142;16.290;2023-07-13T08:18:11;22.60;99.90
14095;DHT22;18096;48.142;16.290;2023-07-13T08:20:40;22.70;99.90
14095;DHT22;18096;48.142;16.290;2023-07-13T08:23:07;22.80;99.90
14095;DHT22;18096;48.142;16.290;2023-07-13T08:25:34;22.90;99.90
14095;DHT22;18096;48.142;16.290;2023-07-13T08:28:00;23.00;99.90
14095;DHT22;18096;48.142;16.290;2023-07-13T08:30:26;23.10;99.90
14095;DHT22;18096;48.142;16.290;2023-07-13T08:32:53;23.20;99.90
14095;DHT22;18096;48.142;16.290;2023-07-13T08:35:19;23.30;99.90
14095;DHT22;18096;48.142;16.290;2023-07-13T08:37:44;23.40;99.90
14095;DHT22;18096;48.142;16.290;2023-07-13T08:40:11;23.50;99.90
14095;DHT22;18096;48.142;16.290;2023-07-13T08:42:45;23.60;99.90
14095;DHT22;18096;48.142;16.290;2023-07-13T08:48:03;23.80;99.90
14095;DHT22;18096;48.142;16.290;2023-07-13T08:50:51;23.80;99.90
14095;DHT22;18096;48.142;16.290;2023-07-13T08:53:21;23.90;99.90
14095;DHT22;18096;48.142;16.290;2023-07-13T08:55:51;23.90;99.90
14095;DHT22;18096;48.142;16.290;2023-07-13T08:58:21;23.90;99.90
14095;DHT22;18096;48.142;16.290;2023-07-13T09:00:56;24.00;99.90
14095;DHT22;18096;48.142;16.290;2023-07-13T09:03:27;24.00;99.90
14095;DHT22;18096;48.142;16.290;2023-07-13T09:05:58;24.00;99.90
14095;DHT22;18096;48.142;16.290;2023-07-13T09:08:46;24.10;99.90
14095;DHT22;18096;48.142;16.290;2023-07-13T09:16:31;24.20;99.90
14095;DHT22;18096;48.142;16.290;2023-07-13T09:19:04;24.40;99.90
14095;DHT22;18096;48.142;16.290;2023-07-13T09:21:34;24.40;99.90
14095;DHT22;18096;48.142;16.290;2023-07-13T09:27:17;24.50;99.90
14095;DHT22;18096;48.142;16.290;2023-07-13T09:32:41;24.50;99.90
14095;DHT22;18096;48.142;16.290;2023-07-13T09:35:17;24.60;99.90
14095;DHT22;18096;48.142;16.290;2023-07-13T09:37:45;24.60;99.90
14095;DHT22;18096;48.142;16.290;2023-07-13T09:40:24;24.70;99.90
14095;DHT22;18096;48.142;16.290;2023-07-13T09:42:53;24.70;99.90
14095;DHT22;18096;48.142;16.290;2023-07-13T09:45:32;24.80;99.90
14095;DHT22;18096;48.142;16.290;2023-07-13T09:48:11;24.80;99.90
14095;DHT22;18096;48.142;16.290;2023-07-13T09:50:39;24.80;99.90
14095;DHT22;18096;48.142;16.290;2023-07-13T09:53:18;24.80;99.90
14095;DHT22;18096;48.142;16.290;2023-07-13T09:55:46;24.80;99.90
14095;DHT22;18096;48.142;16.290;2023-07-13T09:58:20;24.90;99.90
14095;DHT22;18096;48.142;16.290;2023-07-13T10:01:00;25.00;99.90
14095;DHT22;18096;48.142;16.290;2023-07-13T10:03:33;25.00;99.90
14095;DHT22;18096;48.142;16.290;2023-07-13T10:06:18;25.10;99.90
14095;DHT22;18096;48.142;16.290;2023-07-13T10:08:45;25.20;99.90
14095;DHT22;18096;48.142;16.290;2023-07-13T10:11:22;25.20;99.90
14095;DHT22;18096;48.142;16.290;2023-07-13T10:13:53;25.20;99.90
14095;DHT22;18096;48.142;16.290;2023-07-13T10:16:22;25.20;99.90
14095;DHT22;18096;48.142;16.290;2023-07-13T10:18:49;25.20;99.90
14095;DHT22;18096;48.142;16.290;2023-07-13T10:21:21;25.30;99.90
14095;DHT22;18096;48.142;16.290;2023-07-13T10:23:53;25.30;99.90
14095;DHT22;18096;48.142;16.290;2023-07-13T10:26:23;25.30;99.90
14095;DHT22;18096;48.142;16.290;2023-07-13T10:28:54;25.30;99.90
14095;DHT22;18096;48.142;16.290;2023-07-13T10:31:22;25.30;99.90
14095;DHT22;18096;48.142;16.290;2023-07-13T10:33:49;25.30;99.90
14095;DHT22;18096;48.142;16.290;2023-07-13T10:36:31;25.20;99.90
14095;DHT22;18096;48.142;16.290;2023-07-13T10:39:02;25.30;99.90
14095;DHT22;18096;48.142;16.290;2023-07-13T10:41:30;25.30;99.90
14095;DHT22;18096;48.142;16.290;2023-07-13T10:43:58;25.40;99.90
14095;DHT22;18096;48.142;16.290;2023-07-13T10:46:26;25.40;99.90
14095;DHT22;18096;48.142;16.290;2023-07-13T10:48:58;25.40;99.90
14095;DHT22;18096;48.142;16.290;2023-07-13T10:51:25;25.30;99.90
14095;DHT22;18096;48.142;16.290;2023-07-13T10:54:11;25.30;99.90
14095;DHT22;18096;48.142;16.290;2023-07-13T10:56:39;25.20;99.90
14095;DHT22;18096;48.142;16.290;2023-07-13T10:59:16;25.30;99.90
14095;DHT22;18096;48.142;16.290;2023-07-13T11:04:29;25.30;99.90
14095;DHT22;18096;48.142;16.290;2023-07-13T11:07:16;25.30;99.90
14095;DHT22;18096;48.142;16.290;2023-07-13T11:09:44;25.20;99.90
14095;DHT22;18096;48.142;16.290;2023-07-13T11:22:48;25.30;99.90
14095;DHT22;18096;48.142;16.290;2023-07-13T11:27:50;25.40;99.90
14095;DHT22;18096;48.142;16.290;2023-07-13T11:30:31;25.50;99.90
14095;DHT22;18096;48.142;16.290;2023-07-13T11:33:04;25.50;99.70
14095;DHT22;18096;48.142;16.290;2023-07-13T11:35:37;25.50;99.00
14095;DHT22;18096;48.142;16.290;2023-07-13T11:38:14;25.50;98.80
14095;DHT22;18096;48.142;16.290;2023-07-13T11:40:42;25.50;99.10
14095;DHT22;18096;48.142;16.290;2023-07-13T11:43:13;25.60;99.50
14095;DHT22;18096;48.142;16.290;2023-07-13T11:45:39;25.70;99.20
14095;DHT22;18096;48.142;16.290;2023-07-13T11:48:16;25.70;98.90
14095;DHT22;18096;48.142;16.290;2023-07-13T11:50:42;25.80;98.90
14095;DHT22;18096;48.142;16.290;2023-07-13T11:53:15;25.90;98.80
14095;DHT22;18096;48.142;16.290;2023-07-13T11:55:40;26.00;97.40
14095;DHT22;18096;48.142;16.290;2023-07-13T11:58:09;26.00;97.60
14095;DHT22;18096;48.142;16.290;2023-07-13T12:00:36;26.00;97.70
14095;DHT22;18096;48.142;16.290;2023-07-13T12:03:03;26.00;98.10
14095;DHT22;18096;48.142;16.290;2023-07-13T12:05:30;26.10;97.40
14095;DHT22;18096;48.142;16.290;2023-07-13T12:07:56;26.10;96.90
14095;DHT22;18096;48.142;16.290;2023-07-13T12:12:52;26.20;96.70
14095;DHT22;18096;48.142;16.290;2023-07-13T12:15:17;26.30;96.40
14095;DHT22;18096;48.142;16.290;2023-07-13T12:17:43;26.30;96.00
14095;DHT22;18096;48.142;16.290;2023-07-13T12:22:47;26.30;95.70
14095;DHT22;18096;48.142;16.290;2023-07-13T12:25:13;26.20;95.60
14095;DHT22;18096;48.142;16.290;2023-07-13T12:27:40;26.20;95.50
14095;DHT22;18096;48.142;16.290;2023-07-13T12:30:21;26.20;95.30
14095;DHT22;18096;48.142;16.290;2023-07-13T12:33:23;26.20;95.80
14095;DHT22;18096;48.142;16.290;2023-07-13T12:35:41;26.20;95.70
14095;DHT22;18096;48.142;16.290;2023-07-13T12:38:10;26.20;95.50
14095;DHT22;18096;48.142;16.290;2023-07-13T12:40:36;26.20;95.80
14095;DHT22;18096;48.142;16.290;2023-07-13T12:43:03;26.20;96.00
14095;DHT22;18096;48.142;16.290;2023-07-13T12:45:32;26.20;96.20
14095;DHT22;18096;48.142;16.290;2023-07-13T12:48:03;26.20;96.20
14095;DHT22;18096;48.142;16.290;2023-07-13T12:50:40;26.20;96.00
14095;DHT22;18096;48.142;16.290;2023-07-13T12:53:13;26.20;95.70
14095;DHT22;18096;48.142;16.290;2023-07-13T12:55:51;26.20;95.80
14095;DHT22;18096;48.142;16.290;2023-07-13T13:00:51;26.10;95.80
14095;DHT22;18096;48.142;16.290;2023-07-13T13:03:38;26.10;96.40
14095;DHT22;18096;48.142;16.290;2023-07-13T13:06:22;26.20;96.50
14095;DHT22;18096;48.142;16.290;2023-07-13T13:08:56;26.20;96.00
14095;DHT22;18096;48.142;16.290;2023-07-13T13:11:24;26.20;96.00
14095;DHT22;18096;48.142;16.290;2023-07-13T13:13:51;26.20;95.90
14095;DHT22;18096;48.142;16.290;2023-07-13T13:16:23;26.20;95.60
14095;DHT22;18096;48.142;16.290;2023-07-13T13:18:51;26.20;95.20
14095;DHT22;18096;48.142;16.290;2023-07-13T13:21:17;26.20;95.10
14095;DHT22;18096;48.142;16.290;2023-07-13T13:23:45;26.20;95.10
14095;DHT22;18096;48.142;16.290;2023-07-13T13:26:15;26.20;95.30
14095;DHT22;18096;48.142;16.290;2023-07-13T13:28:42;26.20;94.70
14095;DHT22;18096;48.142;16.290;2023-07-13T13:31:10;26.20;94.90
14095;DHT22;18096;48.142;16.290;2023-07-13T13:33:38;26.20;94.80
14095;DHT22;18096;48.142;16.290;2023-07-13T13:36:14;26.20;94.60
14095;DHT22;18096;48.142;16.290;2023-07-13T13:38:41;26.10;94.20
14095;DHT22;18096;48.142;16.290;2023-07-13T13:41:12;26.10;94.30
14095;DHT22;18096;48.142;16.290;2023-07-13T13:43:39;26.10;94.30
14095;DHT22;18096;48.142;16.290;2023-07-13T13:46:18;26.20;94.20
14095;DHT22;18096;48.142;16.290;2023-07-13T13:48:44;26.20;94.50
14095;DHT22;18096;48.142;16.290;2023-07-13T13:51:18;26.30;94.70
14095;DHT22;18096;48.142;16.290;2023-07-13T13:53:44;26.30;93.80
14095;DHT22;18096;48.142;16.290;2023-07-13T13:56:11;26.30;94.10
14095;DHT22;18096;48.142;16.290;2023-07-13T13:58:36;26.30;94.30
14095;DHT22;18096;48.142;16.290;2023-07-13T14:01:02;26.30;94.00
14095;DHT22;18096;48.142;16.290;2023-07-13T14:03:28;26.30;94.10
14095;DHT22;18096;48.142;16.290;2023-07-13T14:05:54;26.30;94.20
14095;DHT22;18096;48.142;16.290;2023-07-13T14:08:21;26.30;93.50
14095;DHT22;18096;48.142;16.290;2023-07-13T14:10:51;26.30;93.40
14095;DHT22;18096;48.142;16.290;2023-07-13T14:13:26;26.30;94.20
14095;DHT22;18096;48.142;16.290;2023-07-13T14:15:53;26.30;93.90
14095;DHT22;18096;48.142;16.290;2023-07-13T14:18:19;26.30;93.50
14095;DHT22;18096;48.142;16.290;2023-07-13T14:20:46;26.30;93.40
14095;DHT22;18096;48.142;16.290;2023-07-13T14:23:16;26.20;93.50
14095;DHT22;18096;48.142;16.290;2023-07-13T14:25:43;26.20;93.50
14095;DHT22;18096;48.142;16.290;2023-07-13T14:30:47;26.20;94.00
14095;DHT22;18096;48.142;16.290;2023-07-13T14:33:13;26.20;94.00
14095;DHT22;18096;48.142;16.290;2023-07-13T14:35:39;26.10;93.80
14095;DHT22;18096;48.142;16.290;2023-07-13T14:38:05;26.10;93.90
14095;DHT22;18096;48.142;16.290;2023-07-13T14:40:34;26.10;93.80
14095;DHT22;18096;48.142;16.290;2023-07-13T14:43:01;26.00;93.60
14095;DHT22;18096;48.142;16.290;2023-07-13T14:45:26;26.00;93.20
14095;DHT22;18096;48.142;16.290;2023-07-13T14:47:53;26.00;93.40
14095;DHT22;18096;48.142;16.290;2023-07-13T14:50:23;25.90;93.80
14095;DHT22;18096;48.142;16.290;2023-07-13T14:52:50;25.90;93.80
14095;DHT22;18096;48.142;16.290;2023-07-13T14:55:17;25.80;93.50
14095;DHT22;18096;48.142;16.290;2023-07-13T14:57:44;25.80;93.40
14095;DHT22;18096;48.142;16.290;2023-07-13T15:00:19;25.70;93.30
14095;DHT22;18096;48.142;16.290;2023-07-13T15:02:51;25.70;93.30
14095;DHT22;18096;48.142;16.290;2023-07-13T15:05:25;25.60;93.20
14095;DHT22;18096;48.142;16.290;2023-07-13T15:07:53;25.60;93.00
14095;DHT22;18096;48.142;16.290;2023-07-13T15:10:24;25.60;93.10
14095;DHT22;18096;48.142;16.290;2023-07-13T15:12:59;25.50;93.20
14095;DHT22;18096;48.142;16.290;2023-07-13T15:15:28;25.50;93.30
14095;DHT22;18096;48.142;16.290;2023-07-13T15:17:55;25.50;93.30
14095;DHT22;18096;48.142;16.290;2023-07-13T15:20:29;25.50;93.30
14095;DHT22;18096;48.142;16.290;2023-07-13T15:22:56;25.50;93.30
14095;DHT22;18096;48.142;16.290;2023-07-13T15:25:25;25.50;93.70
14095;DHT22;18096;48.142;16.290;2023-07-13T15:27:52;25.50;93.90
14095;DHT22;18096;48.142;16.290;2023-07-13T15:30:18;25.40;93.70
14095;DHT22;18096;48.142;16.290;2023-07-13T15:32:44;25.40;93.70
14095;DHT22;18096;48.142;16.290;2023-07-13T15:35:18;25.40;94.10
14095;DHT22;18096;48.142;16.290;2023-07-13T15:37:45;25.40;93.70
14095;DHT22;18096;48.142;16.290;2023-07-13T15:40:12;25.30;93.60
14095;DHT22;18096;48.142;16.290;2023-07-13T15:42:39;25.30;93.90
14095;DHT22;18096;48.142;16.290;2023-07-13T15:45:22;25.30;93.90
14095;DHT22;18096;48.142;16.290;2023-07-13T15:47:49;25.20;94.00
14095;DHT22;18096;48.142;16.290;2023-07-13T15:50:24;25.20;93.80
14095;DHT22;18096;48.142;16.290;2023-07-13T15:52:52;25.10;93.90
14095;DHT22;18096;48.142;16.290;2023-07-13T15:55:18;25.10;94.00
14095;DHT22;18096;48.142;16.290;2023-07-13T15:57:49;25.10;94.00
14095;DHT22;18096;48.142;16.290;2023-07-13T16:00:24;25.10;94.10
14095;DHT22;18096;48.142;16.290;2023-07-13T16:02:51;25.00;94.20